createdAt,value
2022-10-10T00:01:37.413Z,21.80
2022-10-10T00:04:06.828Z,19.50
2022-10-10T00:06:34.661Z,15.90
2022-10-10T00:09:06.111Z,17.80
2022-10-10T00:11:35.511Z,16.70
2022-10-10T00:14:04.936Z,16.60
2022-10-10T00:16:33.964Z,17.40
2022-10-10T00:19:01.853Z,20.20
2022-10-10T00:21:31.562Z,20.80
2022-10-10T00:24:01.693Z,19.40
2022-10-10T00:26:30.784Z,17.10
2022-10-10T00:28:58.537Z,18.60
2022-10-10T00:31:27.958Z,15.60
2022-10-10T00:33:58.153Z,17.50
2022-10-10T00:36:25.909Z,17.80
2022-10-10T00:38:53.660Z,17.10
2022-10-10T00:41:22.816Z,16.40
2022-10-10T00:44:12.256Z,19.10
2022-10-10T00:46:41.803Z,16.70
2022-10-10T00:49:24.253Z,18.60
2022-10-10T00:51:57.008Z,17.50
2022-10-10T00:54:29.010Z,16.00
2022-10-10T00:57:09.551Z,18.20
2022-10-10T00:59:42.349Z,17.90
2022-10-10T01:02:10.026Z,11.60
2022-10-10T01:04:45.385Z,14.10
2022-10-10T01:07:24.561Z,14.40
2022-10-10T01:09:56.482Z,14.00
2022-10-10T01:12:42.807Z,14.80
2022-10-10T01:15:16.770Z,13.00
2022-10-10T01:17:48.716Z,19.10
2022-10-10T01:20:39.447Z,21.90
2022-10-10T01:23:38.468Z,20.80
2022-10-10T01:26:24.927Z,23.00
2022-10-10T01:29:23.632Z,21.50
2022-10-10T01:31:56.739Z,20.80
2022-10-10T01:34:44.739Z,20.50
2022-10-10T01:37:25.591Z,20.10
2022-10-10T01:40:30.526Z,14.30
2022-10-10T01:43:09.246Z,14.70
2022-10-10T01:45:37.470Z,14.20
2022-10-10T01:48:07.533Z,14.60
2022-10-10T01:51:00.755Z,13.50
2022-10-10T01:53:40.298Z,13.30
2022-10-10T01:56:07.873Z,13.30
2022-10-10T01:58:57.617Z,15.30
2022-10-10T02:01:36.207Z,13.90
2022-10-10T02:04:12.948Z,12.90
2022-10-10T02:06:56.771Z,13.60
2022-10-10T02:09:33.485Z,13.10
2022-10-10T02:12:04.627Z,13.10
2022-10-10T02:14:57.283Z,13.50
2022-10-10T02:17:27.472Z,14.40
2022-10-10T02:19:59.411Z,15.40
2022-10-10T02:22:29.267Z,15.40
2022-10-10T02:24:57.165Z,14.80
2022-10-10T02:27:47.143Z,13.90
2022-10-10T02:30:19.266Z,13.30
2022-10-10T02:32:48.180Z,17.20
2022-10-10T02:35:25.583Z,16.90
2022-10-10T02:37:55.596Z,19.50
2022-10-10T02:40:31.096Z,19.80
2022-10-10T02:43:04.443Z,23.50
2022-10-10T02:45:34.378Z,20.20
2022-10-10T02:48:03.590Z,21.30
2022-10-10T02:50:33.195Z,21.40
2022-10-10T02:53:00.862Z,21.00
2022-10-10T02:55:28.557Z,20.80
2022-10-10T02:57:56.237Z,21.00
2022-10-10T03:00:23.899Z,14.60
2022-10-10T03:02:51.786Z,14.90
2022-10-10T03:05:21.919Z,14.10
2022-10-10T03:07:51.068Z,14.80
2022-10-10T03:10:18.811Z,16.00
2022-10-10T03:12:46.444Z,16.10
2022-10-10T03:15:14.112Z,17.40
2022-10-10T03:17:42.902Z,17.30
2022-10-10T03:20:11.595Z,20.20
2022-10-10T03:22:39.411Z,20.80
2022-10-10T03:25:07.493Z,20.60
2022-10-10T03:27:35.148Z,21.40
2022-10-10T03:30:06.895Z,21.50
2022-10-10T03:32:34.589Z,19.70
2022-10-10T03:35:02.290Z,19.90
2022-10-10T03:37:29.932Z,21.70
2022-10-10T03:39:57.585Z,20.40
2022-10-10T03:42:26.654Z,22.30
2022-10-10T03:44:54.345Z,21.10
2022-10-10T03:47:21.988Z,21.60
2022-10-10T03:49:51.108Z,23.60
2022-10-10T03:52:18.740Z,23.80
2022-10-10T03:54:46.877Z,22.40
2022-10-10T03:57:16.480Z,21.70
2022-10-10T03:59:44.177Z,21.20
2022-10-10T04:02:11.907Z,20.70
2022-10-10T04:04:39.591Z,21.70
2022-10-10T04:07:07.328Z,22.30
2022-10-10T04:09:35.012Z,23.00
2022-10-10T04:12:06.269Z,22.40
2022-10-10T04:14:33.956Z,22.00
2022-10-10T04:17:03.306Z,22.40
2022-10-10T04:19:32.224Z,21.90
2022-10-10T04:22:00.996Z,23.30
2022-10-10T04:24:28.795Z,23.10
2022-10-10T04:26:56.474Z,23.70
2022-10-10T04:29:24.668Z,23.10
2022-10-10T04:31:55.188Z,23.40
2022-10-10T04:34:22.910Z,22.80
2022-10-10T04:36:50.809Z,24.10
2022-10-10T04:39:20.095Z,23.50
2022-10-10T04:41:50.676Z,22.90
2022-10-10T04:44:18.951Z,24.10
2022-10-10T04:46:46.649Z,23.80
2022-10-10T04:49:14.314Z,23.30
2022-10-10T04:51:41.984Z,22.90
2022-10-10T04:54:11.001Z,22.40
2022-10-10T04:56:40.282Z,22.70
2022-10-10T04:59:10.196Z,23.40
2022-10-10T05:01:37.951Z,24.60
2022-10-10T05:04:06.963Z,24.60
2022-10-10T05:06:34.619Z,22.70
2022-10-10T05:09:02.384Z,24.10
2022-10-10T05:11:30.074Z,22.50
2022-10-10T05:13:59.121Z,21.00
2022-10-10T05:16:26.881Z,21.30
2022-10-10T05:18:54.762Z,21.40
2022-10-10T05:21:22.613Z,22.70
2022-10-10T05:23:50.323Z,20.90
2022-10-10T05:26:21.147Z,23.70
2022-10-10T05:28:49.225Z,23.00
2022-10-10T05:31:17.047Z,23.40
2022-10-10T05:33:44.700Z,24.40
2022-10-10T05:36:14.056Z,26.00
2022-10-10T05:38:42.974Z,27.70
2022-10-10T05:41:10.700Z,27.10
2022-10-10T05:43:38.769Z,24.90
2022-10-10T05:46:06.521Z,24.90
2022-10-10T05:48:34.313Z,24.40
2022-10-10T05:51:02.017Z,24.40
2022-10-10T05:53:31.266Z,25.20
2022-10-10T05:56:02.180Z,24.90
2022-10-10T05:58:31.778Z,24.10
2022-10-10T06:01:05.779Z,23.60
2022-10-10T06:03:35.701Z,27.10
2022-10-10T06:06:04.734Z,27.50
2022-10-10T06:08:32.522Z,27.00
2022-10-10T06:11:08.458Z,26.00
2022-10-10T06:13:38.757Z,26.10
2022-10-10T06:16:07.983Z,27.70
2022-10-10T06:18:37.075Z,26.20
2022-10-10T06:21:08.674Z,22.80
2022-10-10T06:23:37.510Z,22.10
2022-10-10T06:26:05.312Z,20.70
2022-10-10T06:28:35.890Z,22.40
2022-10-10T06:31:08.487Z,21.60
2022-10-10T06:33:37.817Z,23.70
2022-10-10T06:36:07.822Z,23.70
2022-10-10T06:38:41.116Z,22.10
2022-10-10T06:41:10.483Z,21.60
2022-10-10T06:43:39.459Z,21.40
2022-10-10T06:46:08.036Z,21.10
2022-10-10T06:48:36.690Z,21.00
2022-10-10T06:51:09.374Z,21.50
2022-10-10T06:53:37.091Z,22.10
2022-10-10T06:56:07.151Z,20.20
2022-10-10T06:58:35.455Z,19.30
2022-10-10T07:01:05.897Z,18.60
2022-10-10T07:03:33.561Z,17.70
2022-10-10T07:06:03.571Z,18.90
2022-10-10T07:08:32.606Z,19.00
2022-10-10T07:11:00.312Z,17.50
2022-10-10T07:13:29.131Z,17.90
2022-10-10T07:15:57.101Z,16.70
2022-10-10T07:18:25.236Z,17.20
2022-10-10T07:20:57.577Z,16.90
2022-10-10T07:23:28.403Z,16.20
2022-10-10T07:26:04.201Z,16.10
2022-10-10T07:28:32.922Z,15.50
2022-10-10T07:31:08.091Z,14.40
2022-10-10T07:33:40.030Z,15.70
2022-10-10T07:36:09.047Z,14.60
2022-10-10T07:38:38.538Z,16.10
2022-10-10T07:41:10.195Z,16.60
2022-10-10T07:43:38.951Z,16.00
2022-10-10T07:46:12.957Z,14.90
2022-10-10T07:48:40.792Z,17.00
2022-10-10T07:51:10.073Z,16.20
2022-10-10T07:53:39.236Z,16.70
2022-10-10T07:56:10.479Z,16.90
2022-10-10T07:58:39.646Z,17.20
2022-10-10T08:01:11.788Z,15.90
2022-10-10T08:03:40.544Z,14.40
2022-10-10T08:06:13.021Z,12.80
2022-10-10T08:08:50.306Z,12.60
2022-10-10T08:11:21.389Z,12.60
2022-10-10T08:13:51.150Z,12.60
2022-10-10T08:16:20.465Z,11.90
2022-10-10T08:18:49.721Z,9.50
2022-10-10T08:21:18.342Z,8.60
2022-10-10T08:23:47.382Z,7.30
2022-10-10T08:26:18.497Z,10.80
2022-10-10T08:28:49.445Z,8.90
2022-10-10T08:31:21.412Z,7.00
2022-10-10T08:33:51.427Z,7.00
2022-10-10T08:36:24.522Z,6.70
2022-10-10T08:39:02.631Z,6.40
2022-10-10T08:41:47.459Z,6.70
2022-10-10T08:44:43.197Z,6.30
2022-10-10T08:47:18.597Z,5.20
2022-10-10T08:49:52.493Z,5.10
2022-10-10T08:52:30.979Z,5.30
2022-10-10T08:55:03.695Z,4.90
2022-10-10T08:58:02.335Z,4.90
2022-10-10T09:00:36.762Z,6.80
2022-10-10T09:03:32.966Z,7.90
2022-10-10T09:06:39.016Z,4.80
2022-10-10T09:09:48.830Z,6.10
2022-10-10T09:12:39.890Z,3.70
2022-10-10T09:15:29.454Z,6.70
2022-10-10T09:18:09.923Z,4.90
2022-10-10T09:21:23.075Z,3.40
2022-10-10T09:24:04.649Z,2.80
2022-10-10T09:26:40.485Z,2.40
2022-10-10T09:29:33.273Z,2.10
2022-10-10T09:32:09.580Z,2.70
2022-10-10T09:34:49.455Z,4.20
2022-10-10T09:37:46.876Z,4.40
2022-10-10T09:40:34.614Z,3.40
2022-10-10T09:43:18.682Z,2.50
2022-10-10T09:45:53.630Z,2.70
2022-10-10T09:48:28.869Z,2.70
2022-10-10T09:50:57.936Z,2.40
2022-10-10T09:53:27.785Z,2.60
2022-10-10T09:55:55.751Z,2.70
2022-10-10T09:58:44.861Z,2.50
2022-10-10T10:01:18.910Z,2.40
2022-10-10T10:04:17.194Z,2.50
2022-10-10T10:07:18.577Z,4.00
2022-10-10T10:09:53.048Z,2.60
2022-10-10T10:12:27.004Z,2.60
2022-10-10T10:15:03.538Z,2.40
2022-10-10T10:17:31.662Z,2.90
2022-10-10T10:19:59.446Z,2.60
2022-10-10T10:22:33.127Z,3.40
2022-10-10T10:25:32.766Z,2.90
2022-10-10T10:28:21.779Z,2.40
2022-10-10T10:30:55.068Z,2.60
2022-10-10T10:33:38.439Z,2.60
2022-10-10T10:36:41.642Z,2.80
2022-10-10T10:39:38.945Z,2.60
2022-10-10T10:42:21.970Z,2.50
2022-10-10T10:45:13.562Z,2.30
2022-10-10T10:47:58.743Z,2.60
2022-10-10T10:50:38.419Z,2.60
2022-10-10T10:53:34.549Z,2.50
2022-10-10T10:56:13.529Z,2.40
2022-10-10T11:02:11.588Z,2.50
2022-10-10T11:05:36.581Z,2.70
2022-10-10T11:08:21.156Z,2.50
2022-10-10T11:11:18.386Z,2.60
2022-10-10T11:14:02.088Z,3.20
2022-10-10T11:16:51.986Z,2.90
2022-10-10T11:19:25.791Z,3.00
2022-10-10T11:22:07.482Z,3.00
2022-10-10T11:25:00.778Z,2.90
2022-10-10T11:27:43.195Z,2.50
2022-10-10T11:30:26.655Z,3.00
2022-10-10T11:33:21.068Z,3.20
2022-10-10T11:35:58.818Z,2.90
2022-10-10T11:39:03.419Z,3.20
2022-10-10T11:41:44.405Z,2.90
2022-10-10T11:44:18.188Z,3.40
2022-10-10T11:46:56.251Z,3.20
2022-10-10T11:49:44.763Z,2.80
2022-10-10T11:52:32.914Z,2.80
2022-10-10T11:55:27.463Z,2.70
2022-10-10T11:58:28.318Z,2.70
2022-10-10T12:01:13.505Z,3.30
2022-10-10T12:03:41.192Z,3.80
2022-10-10T12:06:35.246Z,3.20
2022-10-10T12:09:08.629Z,3.10
2022-10-10T12:11:59.942Z,2.40
2022-10-10T12:14:31.594Z,2.70
2022-10-10T12:17:01.179Z,3.40
2022-10-10T12:19:29.619Z,2.80
2022-10-10T12:22:30.822Z,3.10
2022-10-10T12:25:10.519Z,3.00
2022-10-10T12:28:05.789Z,2.90
2022-10-10T12:30:33.614Z,2.50
2022-10-10T12:33:01.323Z,3.30
2022-10-10T12:35:36.797Z,3.30
2022-10-10T12:38:13.558Z,3.00
2022-10-10T12:41:07.110Z,2.70
2022-10-10T12:43:40.359Z,2.40
2022-10-10T12:48:45.774Z,3.00
2022-10-10T12:51:23.362Z,2.90
2022-10-10T12:53:58.205Z,3.70
2022-10-10T12:56:44.731Z,3.10
2022-10-10T12:59:21.353Z,2.70
2022-10-10T13:02:02.728Z,3.50
2022-10-10T13:04:32.049Z,3.40
2022-10-10T13:07:04.482Z,3.30
2022-10-10T13:09:35.940Z,2.70
2022-10-10T13:12:07.091Z,2.90
2022-10-10T13:14:41.420Z,3.20
2022-10-10T13:17:33.512Z,2.90
2022-10-10T13:20:02.754Z,2.90
2022-10-10T13:22:34.009Z,2.80
2022-10-10T13:25:05.436Z,3.20
2022-10-10T13:27:35.458Z,3.10
2022-10-10T13:30:08.180Z,3.20
2022-10-10T13:32:37.545Z,3.40
2022-10-10T13:35:15.086Z,3.30
2022-10-10T13:37:46.200Z,3.30
2022-10-10T13:40:16.650Z,3.40
2022-10-10T13:42:48.554Z,3.30
2022-10-10T13:45:29.266Z,3.10
2022-10-10T13:48:02.191Z,3.40
2022-10-10T13:50:44.383Z,3.60
2022-10-10T13:53:27.474Z,3.00
2022-10-10T13:58:56.216Z,3.10
2022-10-10T14:01:35.833Z,3.10
2022-10-10T14:04:15.611Z,3.50
2022-10-10T14:06:55.365Z,3.30
2022-10-10T14:09:34.203Z,3.50
2022-10-10T14:12:04.938Z,4.60
2022-10-10T14:14:43.119Z,3.90
2022-10-10T14:17:12.144Z,4.00
2022-10-10T14:19:39.900Z,3.80
2022-10-10T14:22:08.862Z,3.80
2022-10-10T14:24:36.664Z,4.90
2022-10-10T14:27:19.780Z,4.30
2022-10-10T14:29:48.068Z,3.70
2022-10-10T14:32:17.585Z,3.80
2022-10-10T14:34:46.648Z,3.20
2022-10-10T14:37:24.971Z,3.60
2022-10-10T14:39:54.323Z,3.70
2022-10-10T14:42:23.812Z,3.20
2022-10-10T14:44:52.238Z,4.10
2022-10-10T14:47:24.629Z,3.50
2022-10-10T14:49:58.120Z,3.90
2022-10-10T14:52:25.792Z,3.70
2022-10-10T14:54:53.449Z,3.90
2022-10-10T14:57:23.449Z,4.20
2022-10-10T14:59:51.228Z,4.20
2022-10-10T15:02:22.774Z,3.80
2022-10-10T15:04:52.457Z,4.40
2022-10-10T15:07:20.323Z,3.90
2022-10-10T15:10:31.728Z,3.80
2022-10-10T15:12:42.850Z,3.90
2022-10-10T15:15:13.553Z,4.70
2022-10-10T15:17:42.651Z,4.20
2022-10-10T15:20:13.187Z,4.60
2022-10-10T15:22:42.330Z,5.90
2022-10-10T15:25:11.447Z,5.60
2022-10-10T15:27:39.265Z,6.50
2022-10-10T15:30:08.549Z,5.70
2022-10-10T15:32:41.313Z,5.00
2022-10-10T15:35:19.627Z,5.60
2022-10-10T15:37:48.885Z,4.60
2022-10-10T15:40:21.107Z,4.90
2022-10-10T15:42:50.970Z,4.90
2022-10-10T15:45:43.543Z,5.00
2022-10-10T15:48:07.901Z,5.00
2022-10-10T15:50:42.753Z,4.60
2022-10-10T15:53:14.447Z,4.90
2022-10-10T15:55:47.167Z,5.10
2022-10-10T15:58:17.377Z,5.00
2022-10-10T16:00:47.046Z,5.10
2022-10-10T16:03:19.537Z,7.90
2022-10-10T16:05:47.211Z,5.10
2022-10-10T16:08:18.887Z,6.40
2022-10-10T16:10:46.554Z,6.70
2022-10-10T16:13:17.035Z,7.00
2022-10-10T16:15:44.766Z,9.20
2022-10-10T16:18:12.405Z,7.60
2022-10-10T16:20:40.052Z,8.50
2022-10-10T16:23:10.226Z,10.00
2022-10-10T16:25:37.853Z,8.30
2022-10-10T16:28:05.631Z,8.60
2022-10-10T16:30:34.639Z,8.30
2022-10-10T16:33:02.355Z,8.60
2022-10-10T16:35:30.133Z,7.80
2022-10-10T16:38:01.075Z,7.40
2022-10-10T16:40:30.052Z,8.40
2022-10-10T16:42:57.734Z,8.30
2022-10-10T16:45:26.490Z,8.40
2022-10-10T16:47:54.338Z,7.70
2022-10-10T16:50:22.076Z,8.50
2022-10-10T16:52:49.853Z,8.30
2022-10-10T16:55:17.603Z,7.00
2022-10-10T16:57:45.275Z,8.00
2022-10-10T17:00:13.178Z,8.50
2022-10-10T17:02:43.014Z,8.50
2022-10-10T17:05:10.763Z,7.50
2022-10-10T17:07:39.759Z,7.70
2022-10-10T17:10:08.065Z,7.70
2022-10-10T17:12:35.726Z,7.80
2022-10-10T17:15:04.985Z,7.70
2022-10-10T17:17:35.943Z,8.00
2022-10-10T17:20:07.218Z,6.70
2022-10-10T17:22:36.383Z,7.00
2022-10-10T17:25:04.586Z,7.20
2022-10-10T17:27:35.180Z,7.50
2022-10-10T17:30:06.090Z,6.50
2022-10-10T17:32:33.744Z,7.60
2022-10-10T17:35:02.522Z,7.40
2022-10-10T17:37:30.259Z,6.60
2022-10-10T17:39:57.922Z,6.90
2022-10-10T17:42:26.665Z,7.70
2022-10-10T17:44:57.817Z,7.20
2022-10-10T17:47:28.408Z,6.60
2022-10-10T17:49:56.070Z,6.40
2022-10-10T17:52:24.978Z,7.20
2022-10-10T17:54:54.821Z,8.00
2022-10-10T17:57:22.990Z,6.90
2022-10-10T17:59:51.237Z,7.80
2022-10-10T18:02:19.703Z,8.20
2022-10-10T18:04:47.382Z,8.30
2022-10-10T18:07:19.292Z,8.20
2022-10-10T18:09:51.741Z,8.40
2022-10-10T18:12:20.207Z,8.80
2022-10-10T18:14:47.921Z,10.00
2022-10-10T18:17:15.652Z,9.80
2022-10-10T18:19:43.455Z,9.60
2022-10-10T18:22:11.152Z,10.30
2022-10-10T18:24:38.978Z,8.90
2022-10-10T18:27:06.696Z,9.60
2022-10-10T18:29:34.660Z,8.10
2022-10-10T18:32:02.442Z,8.40
2022-10-10T18:34:30.506Z,9.50
2022-10-10T18:36:58.204Z,8.50
2022-10-10T18:39:32.189Z,9.60
2022-10-10T18:42:00.964Z,9.80
2022-10-10T18:44:29.147Z,9.40
2022-10-10T18:46:56.802Z,8.70
2022-10-10T18:49:26.004Z,9.20
2022-10-10T18:51:53.986Z,9.30
2022-10-10T18:54:21.657Z,9.00
2022-10-10T18:56:51.205Z,8.70
2022-10-10T18:59:24.459Z,9.10
2022-10-10T19:01:53.876Z,11.00
2022-10-10T19:04:22.839Z,22.30
2022-10-10T19:06:56.813Z,30.80
2022-10-10T19:09:26.914Z,33.50
2022-10-10T19:11:56.101Z,15.80
2022-10-10T19:14:23.831Z,13.50
2022-10-10T19:16:51.876Z,13.20
2022-10-10T19:19:21.029Z,13.40
2022-10-10T19:21:51.534Z,13.00
2022-10-10T19:24:23.074Z,13.10
2022-10-10T19:26:56.810Z,13.10
2022-10-10T19:29:26.502Z,12.60
2022-10-10T19:31:56.912Z,13.50
2022-10-10T19:34:24.746Z,12.30
2022-10-10T19:36:55.080Z,11.90
2022-10-10T19:39:22.864Z,12.20
2022-10-10T19:41:50.700Z,11.70
2022-10-10T19:44:18.356Z,11.20
2022-10-10T19:46:46.049Z,11.00
2022-10-10T19:49:13.712Z,11.80
2022-10-10T19:51:41.488Z,11.70
2022-10-10T19:54:09.345Z,10.80
2022-10-10T19:56:37.050Z,11.30
2022-10-10T19:59:06.590Z,10.30
2022-10-10T20:01:34.605Z,11.10
2022-10-10T20:04:02.380Z,10.10
2022-10-10T20:06:31.362Z,10.60
2022-10-10T20:09:00.224Z,10.50
2022-10-10T20:11:28.058Z,9.70
2022-10-10T20:13:59.116Z,10.50
2022-10-10T20:16:27.520Z,10.20
2022-10-10T20:18:58.737Z,9.50
2022-10-10T20:21:32.584Z,9.70
2022-10-10T20:24:06.145Z,9.90
2022-10-10T20:26:35.763Z,9.40
2022-10-10T20:29:04.932Z,10.10
2022-10-10T20:31:36.662Z,10.40
2022-10-10T20:34:06.506Z,10.90
2022-10-10T20:36:36.119Z,10.30
2022-10-10T20:39:08.645Z,10.60
2022-10-10T20:41:39.402Z,9.30
2022-10-10T20:44:10.223Z,9.80
2022-10-10T20:46:40.685Z,9.70
2022-10-10T20:49:18.272Z,9.90
2022-10-10T20:51:52.831Z,10.60
2022-10-10T20:54:24.066Z,9.60
2022-10-10T20:56:53.113Z,10.20
2022-10-10T20:59:24.457Z,11.90
2022-10-10T21:01:52.158Z,9.70
2022-10-10T21:04:20.672Z,9.60
2022-10-10T21:06:48.433Z,9.70
2022-10-10T21:09:16.117Z,11.60
2022-10-10T21:11:48.687Z,9.60
2022-10-10T21:14:19.900Z,11.20
2022-10-10T21:16:51.344Z,10.30
2022-10-10T21:19:19.079Z,10.50
2022-10-10T21:21:46.854Z,11.10
2022-10-10T21:24:16.076Z,10.00
2022-10-10T21:26:46.485Z,10.00
2022-10-10T21:29:14.143Z,9.50
2022-10-10T21:31:44.081Z,9.90
2022-10-10T21:34:16.561Z,10.60
2022-10-10T21:36:46.289Z,10.60
2022-10-10T21:39:15.931Z,10.90
2022-10-10T21:41:43.620Z,9.70
2022-10-10T21:44:12.423Z,10.10
2022-10-10T21:46:40.087Z,9.80
2022-10-10T21:49:12.208Z,10.40
2022-10-10T21:51:45.491Z,11.50
2022-10-10T21:54:15.004Z,10.40
2022-10-10T21:56:42.676Z,10.50
2022-10-10T21:59:11.874Z,10.30
2022-10-10T22:01:39.661Z,9.90
2022-10-10T22:04:10.696Z,9.40
2022-10-10T22:06:39.100Z,9.30
2022-10-10T22:09:06.935Z,9.90
2022-10-10T22:11:35.860Z,9.60
2022-10-10T22:14:05.152Z,9.50
2022-10-10T22:16:34.565Z,9.10
2022-10-10T22:19:05.459Z,9.00
2022-10-10T22:21:35.145Z,9.90
2022-10-10T22:24:07.988Z,10.60
2022-10-10T22:26:36.961Z,10.40
2022-10-10T22:29:06.015Z,9.80
2022-10-10T22:31:38.148Z,10.50
2022-10-10T22:34:07.677Z,10.80
2022-10-10T22:36:36.816Z,10.80
2022-10-10T22:39:08.247Z,10.90
2022-10-10T22:41:35.898Z,11.10
2022-10-10T22:44:05.090Z,10.70
2022-10-10T22:46:34.177Z,9.90
2022-10-10T22:49:03.389Z,11.00
2022-10-10T22:51:31.114Z,10.80
2022-10-10T22:53:58.832Z,10.80
2022-10-10T22:56:26.744Z,11.80
2022-10-10T22:58:55.119Z,11.30
2022-10-10T23:01:25.939Z,11.50
2022-10-10T23:04:00.347Z,11.60
2022-10-10T23:06:32.747Z,11.80
2022-10-10T23:09:00.592Z,10.60
2022-10-10T23:11:29.432Z,11.10
2022-10-10T23:13:58.640Z,11.00
2022-10-10T23:16:26.616Z,11.70
2022-10-10T23:18:54.234Z,10.90
2022-10-10T23:21:23.422Z,10.20
2022-10-10T23:23:52.393Z,9.60
2022-10-10T23:26:20.193Z,10.60
2022-10-10T23:28:50.834Z,8.40
2022-10-10T23:31:18.514Z,9.30
2022-10-10T23:33:46.194Z,9.90
2022-10-10T23:36:15.309Z,10.00
2022-10-10T23:38:45.629Z,10.00
2022-10-10T23:41:14.154Z,9.50
2022-10-10T23:43:41.888Z,9.40
2022-10-10T23:46:11.039Z,10.40
2022-10-10T23:48:38.914Z,9.30
2022-10-10T23:51:06.738Z,9.70
2022-10-10T23:53:35.903Z,10.30
2022-10-10T23:56:05.554Z,9.20
2022-10-10T23:58:35.630Z,9.10
